createdAt,value
2019-03-31T00:00:25.279Z,1098.60
2019-03-31T00:02:53.512Z,1197.83
2019-03-31T00:05:21.733Z,1121.73
2019-03-31T00:07:49.970Z,1134.92
2019-03-31T00:10:18.189Z,1183.18
2019-03-31T00:12:46.424Z,1180.23
2019-03-31T00:15:14.716Z,1176.05
2019-03-31T00:17:43.276Z,1149.63
2019-03-31T00:20:11.488Z,1119.15
2019-03-31T00:22:39.735Z,1122.28
2019-03-31T00:25:07.960Z,1124.15
2019-03-31T00:27:36.195Z,1101.88
2019-03-31T00:30:05.081Z,1085.38
2019-03-31T00:32:33.312Z,1080.08
2019-03-31T00:35:02.228Z,1040.98
2019-03-31T00:37:30.464Z,1016.50
2019-03-31T00:39:58.679Z,995.80
2019-03-31T00:42:26.910Z,986.37
2019-03-31T00:44:55.131Z,961.65
2019-03-31T00:47:23.366Z,948.67
2019-03-31T00:49:51.578Z,936.58
2019-03-31T00:52:19.806Z,904.80
2019-03-31T00:54:48.030Z,886.52
2019-03-31T00:57:16.243Z,882.02
2019-03-31T00:59:44.459Z,861.90
2019-03-31T01:02:14.586Z,850.20
2019-03-31T01:04:43.279Z,820.20
2019-03-31T01:07:11.496Z,803.52
2019-03-31T01:09:39.767Z,790.12
2019-03-31T01:12:07.982Z,784.67
2019-03-31T01:14:36.197Z,757.95
2019-03-31T01:17:06.322Z,769.50
2019-03-31T01:19:34.981Z,739.00
2019-03-31T01:22:03.201Z,731.85
2019-03-31T01:24:31.414Z,709.52
2019-03-31T01:26:59.630Z,704.48
2019-03-31T01:29:28.184Z,693.85
2019-03-31T01:31:56.771Z,670.38
2019-03-31T01:34:25.092Z,667.48
2019-03-31T01:36:53.726Z,652.73
2019-03-31T01:39:23.195Z,637.52
2019-03-31T01:41:51.714Z,636.00
2019-03-31T01:44:19.941Z,618.08
2019-03-31T01:46:48.153Z,597.05
2019-03-31T01:49:16.365Z,601.00
2019-03-31T01:51:44.918Z,585.35
2019-03-31T01:54:13.139Z,572.42
2019-03-31T01:56:44.625Z,559.90
2019-03-31T01:59:11.898Z,552.52
2019-03-31T02:01:40.400Z,538.33
2019-03-31T02:04:10.255Z,531.52
2019-03-31T02:06:38.471Z,518.63
2019-03-31T02:09:06.969Z,513.25
2019-03-31T02:11:35.174Z,494.97
2019-03-31T02:14:03.386Z,484.18
2019-03-31T02:16:31.606Z,480.35
2019-03-31T02:19:00.076Z,504.77
2019-03-31T02:21:28.286Z,481.90
2019-03-31T02:23:56.811Z,484.18
2019-03-31T02:26:25.295Z,487.95
2019-03-31T02:28:53.879Z,488.87
2019-03-31T02:31:22.102Z,479.80
2019-03-31T02:33:50.651Z,488.27
2019-03-31T02:36:19.109Z,470.02
2019-03-31T02:38:47.323Z,472.15
2019-03-31T02:41:15.554Z,449.08
2019-03-31T02:43:43.768Z,432.62
2019-03-31T02:46:12.319Z,445.50
2019-03-31T02:48:40.903Z,422.33
2019-03-31T02:51:09.136Z,415.85
2019-03-31T02:53:39.662Z,410.30
2019-03-31T02:56:08.000Z,396.57
2019-03-31T02:58:36.191Z,381.68
2019-03-31T03:01:04.415Z,387.23
2019-03-31T03:03:32.915Z,375.35
2019-03-31T03:06:01.153Z,359.23
2019-03-31T03:08:29.685Z,358.93
2019-03-31T03:10:58.729Z,342.85
2019-03-31T03:13:29.344Z,336.02
2019-03-31T03:16:01.091Z,330.45
2019-03-31T03:18:29.310Z,321.05
2019-03-31T03:20:57.807Z,313.90
2019-03-31T03:23:26.391Z,308.05
2019-03-31T03:25:56.760Z,306.07
2019-03-31T03:28:25.190Z,293.97
2019-03-31T03:30:53.914Z,284.30
2019-03-31T03:33:22.388Z,281.65
2019-03-31T03:35:50.601Z,298.55
2019-03-31T03:38:18.817Z,281.85
2019-03-31T03:40:47.039Z,297.70
2019-03-31T03:43:15.275Z,332.15
2019-03-31T03:45:43.843Z,343.30
2019-03-31T03:48:12.056Z,300.85
2019-03-31T03:50:40.602Z,325.05
2019-03-31T03:53:09.220Z,335.30
2019-03-31T03:55:37.447Z,331.57
2019-03-31T03:58:05.659Z,324.40
2019-03-31T04:00:34.154Z,323.75
2019-03-31T04:03:02.391Z,313.57
2019-03-31T04:05:30.618Z,304.85
2019-03-31T04:07:58.827Z,299.25
2019-03-31T04:10:45.347Z,298.73
2019-03-31T04:13:13.577Z,291.60
2019-03-31T04:15:41.792Z,273.05
2019-03-31T04:18:10.277Z,273.48
2019-03-31T04:20:39.475Z,268.85
2019-03-31T04:23:08.001Z,258.47
2019-03-31T04:25:36.238Z,246.53
2019-03-31T04:28:04.452Z,256.27
2019-03-31T04:30:32.746Z,250.93
2019-03-31T04:33:00.981Z,243.50
2019-03-31T04:35:29.536Z,227.00
2019-03-31T04:37:57.748Z,229.57
2019-03-31T04:40:26.300Z,212.97
2019-03-31T04:42:54.506Z,216.95
2019-03-31T04:45:22.721Z,211.35
2019-03-31T04:47:50.940Z,208.68
2019-03-31T04:50:19.155Z,199.85
2019-03-31T04:52:47.370Z,199.85
2019-03-31T04:55:15.585Z,188.27
2019-03-31T04:57:44.122Z,181.00
2019-03-31T05:00:12.344Z,168.47
2019-03-31T05:02:40.560Z,160.82
2019-03-31T05:05:08.776Z,166.68
2019-03-31T05:07:37.329Z,158.60
2019-03-31T05:10:06.534Z,149.07
2019-03-31T05:12:34.751Z,144.25
2019-03-31T05:15:02.973Z,151.15
2019-03-31T05:17:31.564Z,143.47
2019-03-31T05:20:00.353Z,140.85
2019-03-31T05:22:28.725Z,138.32
2019-03-31T05:24:57.202Z,135.03
2019-03-31T05:27:25.416Z,133.72
2019-03-31T05:29:53.626Z,127.87
2019-03-31T05:32:21.837Z,132.30
2019-03-31T05:34:50.046Z,124.15
2019-03-31T05:37:18.266Z,124.42
2019-03-31T05:39:46.469Z,113.30
2019-03-31T05:42:14.689Z,116.65
2019-03-31T05:44:42.898Z,118.28
2019-03-31T05:47:11.109Z,111.25
2019-03-31T05:49:39.654Z,108.15
2019-03-31T05:52:07.879Z,104.97
2019-03-31T05:54:36.091Z,102.32
2019-03-31T05:57:04.306Z,99.95
2019-03-31T05:59:32.516Z,101.00
2019-03-31T06:02:01.032Z,98.58
2019-03-31T06:04:33.393Z,94.32
2019-03-31T06:06:59.197Z,99.28
2019-03-31T06:09:27.718Z,95.47
2019-03-31T06:11:55.936Z,91.78
2019-03-31T06:14:24.140Z,90.90
2019-03-31T06:16:52.356Z,87.67
2019-03-31T06:19:20.907Z,88.45
2019-03-31T06:21:49.135Z,81.10
2019-03-31T06:24:17.347Z,81.80
2019-03-31T06:26:45.566Z,81.63
2019-03-31T06:29:14.116Z,78.20
2019-03-31T06:31:42.339Z,76.92
2019-03-31T06:34:10.872Z,74.25
2019-03-31T06:36:39.084Z,73.37
2019-03-31T06:39:08.142Z,70.25
2019-03-31T06:41:36.625Z,68.00
2019-03-31T06:44:04.837Z,65.40
2019-03-31T06:46:33.031Z,67.03
2019-03-31T06:49:01.249Z,65.57
2019-03-31T06:51:29.456Z,66.07
2019-03-31T06:53:57.661Z,61.48
2019-03-31T06:56:26.177Z,63.13
2019-03-31T06:58:54.862Z,60.83
2019-03-31T07:01:23.077Z,60.80
2019-03-31T07:03:51.279Z,56.75
2019-03-31T07:06:19.489Z,53.33
2019-03-31T07:08:47.706Z,56.37
2019-03-31T07:11:16.241Z,53.95
2019-03-31T07:13:44.723Z,48.70
2019-03-31T07:16:12.931Z,49.13
2019-03-31T07:18:42.005Z,47.90
2019-03-31T07:21:10.219Z,48.30
2019-03-31T07:23:38.435Z,49.70
2019-03-31T07:26:06.643Z,45.15
2019-03-31T07:28:35.196Z,42.98
2019-03-31T07:31:03.684Z,43.68
2019-03-31T07:33:31.893Z,41.75
2019-03-31T07:36:00.377Z,40.17
2019-03-31T07:38:38.904Z,38.63
2019-03-31T07:41:11.923Z,37.42
2019-03-31T07:43:29.004Z,37.17
2019-03-31T07:45:57.212Z,37.88
2019-03-31T07:48:25.752Z,33.85
2019-03-31T07:50:53.952Z,36.23
2019-03-31T07:53:22.160Z,34.53
2019-03-31T07:55:50.363Z,31.68
2019-03-31T07:58:18.941Z,32.45
2019-03-31T08:00:47.129Z,29.90
2019-03-31T08:03:15.616Z,30.45
2019-03-31T08:05:44.296Z,26.50
2019-03-31T08:08:12.644Z,28.62
2019-03-31T08:10:40.862Z,27.58
2019-03-31T08:13:09.447Z,25.90
2019-03-31T08:15:37.662Z,26.40
2019-03-31T08:18:06.348Z,24.27
2019-03-31T08:20:34.624Z,25.75
2019-03-31T08:23:03.151Z,23.92
2019-03-31T08:25:31.360Z,21.65
2019-03-31T08:27:59.576Z,23.40
2019-03-31T08:30:28.071Z,21.55
2019-03-31T08:32:56.543Z,21.80
2019-03-31T08:35:24.749Z,19.35
2019-03-31T08:37:52.976Z,19.20
2019-03-31T08:40:21.182Z,18.00
2019-03-31T08:42:49.403Z,17.55
2019-03-31T08:45:17.609Z,18.92
2019-03-31T08:47:45.828Z,17.80
2019-03-31T08:50:14.031Z,18.32
2019-03-31T08:52:42.259Z,15.68
2019-03-31T08:55:10.461Z,17.20
2019-03-31T08:57:38.681Z,17.27
2019-03-31T09:00:09.647Z,18.00
2019-03-31T09:02:38.123Z,15.32
2019-03-31T09:05:08.218Z,14.93
2019-03-31T09:07:36.416Z,14.87
2019-03-31T09:10:07.464Z,14.35
2019-03-31T09:12:36.039Z,15.07
2019-03-31T09:15:06.553Z,14.03
2019-03-31T09:17:34.757Z,12.68
2019-03-31T09:20:03.244Z,15.15
2019-03-31T09:22:31.477Z,12.55
2019-03-31T09:24:59.682Z,13.00
2019-03-31T09:27:27.896Z,11.95
2019-03-31T09:29:56.088Z,10.85
2019-03-31T09:32:24.289Z,11.97
2019-03-31T09:34:52.496Z,11.57
2019-03-31T09:37:21.046Z,10.43
2019-03-31T09:39:49.251Z,10.45
2019-03-31T09:42:17.710Z,11.90
2019-03-31T09:44:46.003Z,10.18
2019-03-31T09:47:14.208Z,10.53
2019-03-31T09:49:42.423Z,10.63
2019-03-31T09:52:10.621Z,8.60
2019-03-31T09:54:38.839Z,9.33
2019-03-31T09:57:07.030Z,9.83
2019-03-31T09:59:35.531Z,9.93
2019-03-31T10:02:04.016Z,9.88
2019-03-31T10:04:32.242Z,8.75
2019-03-31T10:07:00.430Z,8.55
2019-03-31T10:09:28.643Z,8.18
2019-03-31T10:11:56.837Z,8.53
2019-03-31T10:14:25.400Z,9.30
2019-03-31T10:16:53.594Z,9.33
2019-03-31T10:19:22.155Z,6.70
2019-03-31T10:21:50.633Z,7.35
2019-03-31T10:24:18.846Z,8.05
2019-03-31T10:26:47.041Z,8.55
2019-03-31T10:29:15.255Z,8.23
2019-03-31T10:31:43.745Z,8.78
2019-03-31T10:34:12.218Z,7.33
2019-03-31T10:36:44.878Z,6.75
2019-03-31T10:39:10.631Z,8.35
2019-03-31T10:41:38.830Z,7.00
2019-03-31T10:44:07.051Z,5.80
2019-03-31T10:46:35.241Z,7.25
2019-03-31T10:49:03.452Z,8.15
2019-03-31T10:51:31.946Z,6.15
2019-03-31T10:54:00.162Z,9.18
2019-03-31T10:56:28.369Z,6.28
2019-03-31T10:58:56.564Z,6.40
2019-03-31T11:01:24.770Z,6.12
2019-03-31T11:03:52.962Z,5.22
2019-03-31T11:06:21.166Z,6.53
2019-03-31T11:08:49.672Z,6.25
2019-03-31T11:11:17.869Z,5.58
2019-03-31T11:13:46.434Z,6.22
2019-03-31T11:16:14.904Z,5.00
2019-03-31T11:18:43.099Z,4.78
2019-03-31T11:21:12.939Z,5.55
2019-03-31T11:23:41.133Z,5.05
2019-03-31T11:26:09.645Z,4.22
2019-03-31T11:28:37.844Z,4.45
2019-03-31T11:31:06.038Z,4.17
2019-03-31T11:33:34.248Z,12.70
2019-03-31T11:36:02.452Z,14.07
2019-03-31T11:38:30.654Z,15.80
2019-03-31T11:40:58.856Z,12.03
2019-03-31T11:43:27.392Z,13.50
2019-03-31T11:45:55.852Z,11.35
2019-03-31T11:48:24.059Z,11.90
2019-03-31T11:50:52.612Z,9.85
2019-03-31T11:53:20.811Z,9.58
2019-03-31T11:55:49.011Z,7.35
2019-03-31T11:58:17.218Z,8.50
2019-03-31T12:00:53.042Z,8.63
2019-03-31T12:03:21.242Z,8.88
2019-03-31T12:05:49.442Z,7.33
2019-03-31T12:08:17.638Z,8.35
2019-03-31T12:10:46.201Z,9.65
2019-03-31T12:13:14.399Z,6.70
2019-03-31T12:15:42.951Z,10.75
2019-03-31T12:18:11.152Z,9.38
2019-03-31T12:20:39.363Z,6.62
2019-03-31T12:23:07.610Z,6.80
2019-03-31T12:25:35.778Z,7.65
2019-03-31T12:28:04.327Z,6.30
2019-03-31T12:30:32.524Z,6.15
2019-03-31T12:33:00.727Z,7.05
2019-03-31T12:35:28.933Z,7.40
2019-03-31T12:37:57.135Z,6.35
2019-03-31T12:40:30.570Z,7.75
2019-03-31T12:42:58.783Z,5.53
2019-03-31T12:45:26.989Z,6.50
2019-03-31T12:47:55.562Z,5.45
2019-03-31T12:50:23.757Z,5.67
2019-03-31T12:52:52.056Z,7.17
2019-03-31T12:55:20.257Z,5.75
2019-03-31T12:57:51.619Z,8.30
2019-03-31T13:00:18.989Z,6.58
2019-03-31T13:02:47.204Z,7.37
2019-03-31T13:05:15.393Z,5.05
2019-03-31T13:07:55.724Z,4.28
2019-03-31T13:10:13.534Z,4.03
2019-03-31T13:12:41.746Z,4.53
2019-03-31T13:15:09.945Z,4.33
2019-03-31T13:17:38.447Z,4.20
2019-03-31T13:20:07.117Z,4.97
2019-03-31T13:22:35.335Z,4.92
2019-03-31T13:25:04.473Z,3.42
2019-03-31T13:27:32.689Z,5.37
2019-03-31T13:30:00.890Z,4.92
2019-03-31T13:32:29.442Z,5.35
2019-03-31T13:34:57.638Z,3.62
2019-03-31T13:37:26.202Z,5.35
2019-03-31T13:39:54.396Z,4.25
2019-03-31T13:42:22.965Z,4.55
2019-03-31T13:44:51.162Z,5.17
2019-03-31T13:47:19.716Z,6.55
2019-03-31T13:49:47.914Z,5.53
2019-03-31T13:52:16.122Z,4.92
2019-03-31T13:54:44.318Z,3.08
2019-03-31T13:57:13.371Z,4.95
2019-03-31T13:59:42.126Z,4.45
2019-03-31T14:02:10.335Z,4.35
2019-03-31T14:04:51.057Z,3.20
2019-03-31T14:07:08.467Z,3.80
2019-03-31T14:09:37.075Z,3.40
2019-03-31T14:12:05.282Z,5.53
2019-03-31T14:14:33.479Z,4.05
2019-03-31T14:17:01.695Z,4.10
2019-03-31T14:19:29.889Z,4.00
2019-03-31T14:21:58.138Z,5.80
2019-03-31T14:24:27.143Z,4.53
2019-03-31T14:26:55.512Z,4.00
2019-03-31T14:29:23.706Z,4.33
2019-03-31T14:31:52.255Z,5.97
2019-03-31T14:34:20.533Z,5.97
2019-03-31T14:36:48.733Z,6.53
2019-03-31T14:39:17.375Z,4.55
2019-03-31T14:41:45.579Z,4.50
2019-03-31T14:44:13.778Z,4.25
2019-03-31T14:46:42.326Z,3.92
2019-03-31T14:49:10.527Z,5.20
2019-03-31T14:51:38.722Z,3.12
2019-03-31T14:54:16.110Z,4.97
2019-03-31T14:56:44.847Z,5.42
2019-03-31T14:59:14.731Z,7.35
2019-03-31T15:01:42.833Z,9.88
2019-03-31T15:04:11.030Z,6.80
2019-03-31T15:06:39.226Z,5.25
2019-03-31T15:09:08.830Z,8.23
2019-03-31T15:11:38.033Z,7.17
2019-03-31T15:14:06.709Z,10.55
2019-03-31T15:16:35.776Z,6.30
2019-03-31T15:19:04.691Z,10.70
2019-03-31T15:21:33.854Z,10.18
2019-03-31T15:24:02.064Z,6.62
2019-03-31T15:26:30.274Z,7.05
2019-03-31T15:28:58.479Z,6.70
2019-03-31T15:31:26.974Z,21.37
2019-03-31T15:33:55.542Z,21.05
2019-03-31T15:36:23.744Z,11.60
2019-03-31T15:38:52.295Z,11.10
2019-03-31T15:41:21.550Z,9.70
2019-03-31T15:43:50.091Z,9.55
2019-03-31T15:46:18.557Z,8.08
2019-03-31T15:48:47.039Z,10.25
2019-03-31T15:51:15.267Z,7.70
2019-03-31T15:53:43.467Z,8.68
2019-03-31T15:56:11.668Z,9.90
2019-03-31T15:58:40.143Z,9.00
2019-03-31T16:01:08.339Z,8.60
2019-03-31T16:03:38.011Z,8.35
2019-03-31T16:06:06.479Z,8.60
2019-03-31T16:08:34.681Z,7.80
2019-03-31T16:11:04.818Z,8.28
2019-03-31T16:13:33.390Z,9.00
2019-03-31T16:16:01.591Z,7.45
2019-03-31T16:18:29.794Z,7.25
2019-03-31T16:20:57.990Z,7.15
2019-03-31T16:23:26.201Z,7.37
2019-03-31T16:25:56.038Z,7.70
2019-03-31T16:28:24.574Z,7.50
2019-03-31T16:30:52.775Z,8.73
2019-03-31T16:33:20.979Z,7.05
2019-03-31T16:35:49.517Z,6.78
2019-03-31T16:38:20.709Z,7.67
2019-03-31T16:40:48.906Z,7.78
2019-03-31T16:43:17.110Z,7.60
2019-03-31T16:45:45.574Z,8.05
2019-03-31T16:48:13.778Z,8.88
2019-03-31T16:50:42.340Z,11.15
2019-03-31T16:53:10.823Z,15.78
2019-03-31T16:55:39.399Z,10.00
2019-03-31T16:58:09.483Z,7.17
2019-03-31T17:00:37.897Z,9.40
2019-03-31T17:03:06.098Z,13.00
2019-03-31T17:05:34.306Z,13.08
2019-03-31T17:08:02.514Z,10.63
2019-03-31T17:10:30.710Z,9.43
2019-03-31T17:12:59.185Z,9.68
2019-03-31T17:15:27.370Z,9.98
2019-03-31T17:17:55.929Z,9.15
2019-03-31T17:20:24.134Z,9.25
2019-03-31T17:22:52.690Z,11.48
2019-03-31T17:25:22.811Z,10.10
2019-03-31T17:27:51.307Z,9.65
2019-03-31T17:30:19.876Z,10.05
2019-03-31T17:32:48.075Z,10.53
2019-03-31T17:35:16.292Z,9.33
2019-03-31T17:37:44.473Z,8.60
2019-03-31T17:40:12.975Z,10.10
2019-03-31T17:42:41.177Z,7.62
2019-03-31T17:45:09.727Z,8.13
2019-03-31T17:47:37.930Z,9.00
2019-03-31T17:50:06.217Z,8.28
2019-03-31T17:52:34.421Z,10.55
2019-03-31T17:55:02.719Z,8.03
2019-03-31T17:57:31.017Z,7.75
2019-03-31T17:59:59.218Z,7.37
2019-03-31T18:02:27.772Z,7.85
2019-03-31T18:04:56.353Z,7.25
2019-03-31T18:07:24.550Z,8.70
2019-03-31T18:09:53.110Z,10.48
2019-03-31T18:12:21.586Z,7.58
2019-03-31T18:14:49.833Z,10.75
2019-03-31T18:17:18.039Z,8.98
2019-03-31T18:19:46.254Z,8.00
2019-03-31T18:22:16.769Z,8.00
2019-03-31T18:24:45.010Z,7.22
2019-03-31T18:27:13.481Z,7.75
2019-03-31T18:29:41.693Z,5.90
2019-03-31T18:32:10.255Z,8.63
2019-03-31T18:34:38.467Z,6.95
2019-03-31T18:37:07.013Z,8.55
2019-03-31T18:39:35.219Z,8.20
2019-03-31T18:42:03.448Z,7.92
2019-03-31T18:44:31.664Z,7.85
2019-03-31T18:46:59.867Z,6.05
2019-03-31T18:49:28.070Z,7.53
2019-03-31T18:51:56.280Z,6.08
2019-03-31T18:54:29.140Z,7.33
2019-03-31T18:57:04.743Z,7.10
2019-03-31T18:59:34.577Z,8.18
2019-03-31T19:02:20.997Z,6.78
2019-03-31T19:05:09.650Z,6.60
2019-03-31T19:07:48.352Z,6.83
2019-03-31T19:13:24.987Z,5.65
2019-03-31T19:15:55.192Z,5.95
2019-03-31T19:18:41.221Z,5.00
2019-03-31T19:21:16.934Z,6.40
2019-03-31T19:23:46.587Z,4.42
2019-03-31T19:26:19.153Z,5.45
2019-03-31T19:29:05.187Z,12.88
2019-03-31T19:31:35.343Z,10.20
2019-03-31T19:34:08.106Z,8.85
2019-03-31T19:36:51.352Z,9.85
2019-03-31T19:39:37.122Z,9.08
2019-03-31T19:42:24.838Z,9.68
2019-03-31T19:44:54.689Z,10.13
2019-03-31T19:47:27.760Z,6.97
2019-03-31T19:50:00.380Z,8.60
2019-03-31T19:52:46.109Z,8.65
2019-03-31T19:55:31.247Z,6.65
2019-03-31T19:58:09.926Z,9.50
2019-03-31T20:00:39.769Z,7.20
2019-03-31T20:03:18.191Z,11.05
2019-03-31T20:05:48.031Z,10.32
2019-03-31T20:08:27.498Z,7.80
2019-03-31T20:11:01.820Z,10.68
2019-03-31T20:13:50.046Z,8.45
2019-03-31T20:16:24.976Z,8.90
2019-03-31T20:19:10.955Z,7.50
2019-03-31T20:21:46.775Z,6.75
2019-03-31T20:24:33.013Z,10.48
2019-03-31T20:27:14.938Z,11.05
2019-03-31T20:29:47.718Z,8.00
2019-03-31T20:32:20.777Z,8.13
2019-03-31T20:35:00.354Z,8.70
2019-03-31T20:37:30.545Z,7.12
2019-03-31T20:40:03.043Z,5.78
2019-03-31T20:42:35.801Z,7.00
2019-03-31T20:45:06.391Z,6.62
2019-03-31T20:47:34.605Z,7.37
2019-03-31T20:50:03.077Z,6.47
2019-03-31T20:52:31.518Z,7.50
2019-03-31T20:54:59.711Z,7.60
2019-03-31T20:57:28.026Z,5.67
2019-03-31T20:59:57.835Z,6.80
2019-03-31T21:02:26.051Z,8.35
2019-03-31T21:04:54.254Z,7.83
2019-03-31T21:07:22.480Z,27.35
2019-03-31T21:09:50.703Z,31.02
2019-03-31T21:12:19.713Z,28.83
2019-03-31T21:14:47.927Z,21.00
2019-03-31T21:17:16.483Z,17.40
2019-03-31T21:19:45.463Z,16.42
2019-03-31T21:22:16.059Z,16.65
2019-03-31T21:24:44.320Z,14.00
2019-03-31T21:27:13.981Z,13.50
2019-03-31T21:29:42.282Z,12.65
2019-03-31T21:32:11.348Z,11.12
2019-03-31T21:34:39.557Z,10.98
2019-03-31T21:37:07.786Z,17.23
2019-03-31T21:39:36.301Z,27.98
2019-03-31T21:42:04.524Z,17.12
2019-03-31T21:44:32.717Z,23.45
2019-03-31T21:47:00.931Z,18.35
2019-03-31T21:49:29.139Z,18.75
2019-03-31T21:51:57.348Z,19.67
2019-03-31T21:54:25.569Z,16.07
2019-03-31T21:56:54.027Z,17.27
2019-03-31T21:59:23.872Z,21.85
2019-03-31T22:01:53.235Z,25.68
2019-03-31T22:04:21.438Z,22.13
2019-03-31T22:06:49.655Z,20.12
2019-03-31T22:09:17.855Z,20.43
2019-03-31T22:11:46.440Z,18.85
2019-03-31T22:14:15.028Z,17.67
2019-03-31T22:16:43.246Z,17.87
2019-03-31T22:19:11.646Z,17.50
2019-03-31T22:21:39.856Z,16.17
2019-03-31T22:24:08.076Z,17.10
2019-03-31T22:26:36.600Z,14.90
2019-03-31T22:29:04.827Z,16.10
2019-03-31T22:31:33.029Z,15.53
2019-03-31T22:34:01.259Z,15.50
2019-03-31T22:36:29.456Z,16.30
2019-03-31T22:38:57.683Z,14.53
2019-03-31T22:41:25.875Z,15.48
2019-03-31T22:43:55.744Z,13.98
2019-03-31T22:46:23.939Z,13.15
2019-03-31T22:48:52.156Z,12.75
2019-03-31T22:51:20.360Z,12.20
2019-03-31T22:53:48.873Z,13.00
2019-03-31T22:56:17.345Z,10.78
2019-03-31T22:58:45.564Z,12.18
2019-03-31T23:01:14.118Z,11.85
2019-03-31T23:03:42.331Z,10.82
2019-03-31T23:06:10.791Z,11.83
2019-03-31T23:08:39.002Z,8.93
2019-03-31T23:11:07.521Z,10.35
2019-03-31T23:13:35.737Z,10.00
2019-03-31T23:16:03.929Z,9.43
2019-03-31T23:18:32.141Z,8.63
2019-03-31T23:21:00.341Z,15.60
2019-03-31T23:23:28.891Z,10.13
2019-03-31T23:25:57.095Z,10.13
2019-03-31T23:28:25.307Z,11.57
2019-03-31T23:30:53.506Z,9.93
2019-03-31T23:33:22.103Z,9.73
2019-03-31T23:35:50.580Z,8.50
2019-03-31T23:38:18.853Z,10.00
2019-03-31T23:40:47.443Z,29.70
2019-03-31T23:43:15.695Z,32.45
2019-03-31T23:45:44.196Z,26.97
2019-03-31T23:48:12.405Z,23.87
2019-03-31T23:50:40.615Z,22.10
2019-03-31T23:53:08.822Z,21.97
2019-03-31T23:55:37.040Z,20.25
2019-03-31T23:58:05.252Z,19.48
